sensor_id;sensor_type;location;lat;lon;timestamp;temperature;humidity
6379;DHT22;3222;48.858;10.128;2022-07-23T00:01:19;24.00;94.20
6379;DHT22;3222;48.858;10.128;2022-07-23T00:03:45;24.00;94.40
6379;DHT22;3222;48.858;10.128;2022-07-23T00:06:11;23.80;94.60
6379;DHT22;3222;48.858;10.128;2022-07-23T00:08:37;23.80;94.80
6379;DHT22;3222;48.858;10.128;2022-07-23T00:11:03;23.80;94.70
6379;DHT22;3222;48.858;10.128;2022-07-23T00:13:28;23.90;94.20
6379;DHT22;3222;48.858;10.128;2022-07-23T00:15:54;24.00;94.40
6379;DHT22;3222;48.858;10.128;2022-07-23T00:18:20;24.00;94.10
6379;DHT22;3222;48.858;10.128;2022-07-23T00:20:47;23.90;94.10
6379;DHT22;3222;48.858;10.128;2022-07-23T00:23:12;23.90;94.50
6379;DHT22;3222;48.858;10.128;2022-07-23T00:25:38;24.00;93.90
6379;DHT22;3222;48.858;10.128;2022-07-23T00:28:04;24.10;93.30
6379;DHT22;3222;48.858;10.128;2022-07-23T00:30:31;24.10;93.20
6379;DHT22;3222;48.858;10.128;2022-07-23T00:33:07;24.00;93.30
6379;DHT22;3222;48.858;10.128;2022-07-23T00:35:35;24.10;92.90
6379;DHT22;3222;48.858;10.128;2022-07-23T00:38:02;24.00;92.80
6379;DHT22;3222;48.858;10.128;2022-07-23T00:40:29;24.00;92.70
6379;DHT22;3222;48.858;10.128;2022-07-23T00:42:55;23.90;93.20
6379;DHT22;3222;48.858;10.128;2022-07-23T00:45:21;23.90;93.10
6379;DHT22;3222;48.858;10.128;2022-07-23T00:47:47;23.80;93.50
6379;DHT22;3222;48.858;10.128;2022-07-23T00:50:13;23.70;93.60
6379;DHT22;3222;48.858;10.128;2022-07-23T00:52:40;23.70;93.90
6379;DHT22;3222;48.858;10.128;2022-07-23T00:55:07;23.50;94.00
6379;DHT22;3222;48.858;10.128;2022-07-23T00:57:34;23.60;94.20
6379;DHT22;3222;48.858;10.128;2022-07-23T00:59:59;23.70;94.30
6379;DHT22;3222;48.858;10.128;2022-07-23T01:02:26;23.70;94.10
6379;DHT22;3222;48.858;10.128;2022-07-23T01:04:52;23.80;93.70
6379;DHT22;3222;48.858;10.128;2022-07-23T01:07:18;23.90;93.20
6379;DHT22;3222;48.858;10.128;2022-07-23T01:09:45;23.90;93.00
6379;DHT22;3222;48.858;10.128;2022-07-23T01:12:12;23.90;93.00
6379;DHT22;3222;48.858;10.128;2022-07-23T01:14:38;23.90;93.20
6379;DHT22;3222;48.858;10.128;2022-07-23T01:17:04;23.70;93.30
6379;DHT22;3222;48.858;10.128;2022-07-23T01:19:30;23.80;93.50
6379;DHT22;3222;48.858;10.128;2022-07-23T01:21:57;23.70;93.60
6379;DHT22;3222;48.858;10.128;2022-07-23T01:24:23;23.70;93.70
6379;DHT22;3222;48.858;10.128;2022-07-23T01:27:15;23.70;93.60
6379;DHT22;3222;48.858;10.128;2022-07-23T01:29:43;23.80;93.90
6379;DHT22;3222;48.858;10.128;2022-07-23T01:32:14;23.90;92.90
6379;DHT22;3222;48.858;10.128;2022-07-23T01:34:41;23.80;92.80
6379;DHT22;3222;48.858;10.128;2022-07-23T01:37:06;23.80;93.00
6379;DHT22;3222;48.858;10.128;2022-07-23T01:39:32;23.80;93.30
6379;DHT22;3222;48.858;10.128;2022-07-23T01:41:58;23.70;93.30
6379;DHT22;3222;48.858;10.128;2022-07-23T01:44:24;23.60;93.50
6379;DHT22;3222;48.858;10.128;2022-07-23T01:46:50;23.70;93.80
6379;DHT22;3222;48.858;10.128;2022-07-23T01:49:17;23.70;93.90
6379;DHT22;3222;48.858;10.128;2022-07-23T01:52:03;23.50;94.10
6379;DHT22;3222;48.858;10.128;2022-07-23T01:54:48;23.60;93.90
6379;DHT22;3222;48.858;10.128;2022-07-23T01:57:13;23.70;93.80
6379;DHT22;3222;48.858;10.128;2022-07-23T01:59:39;23.70;93.40
6379;DHT22;3222;48.858;10.128;2022-07-23T02:02:06;23.40;94.00
6379;DHT22;3222;48.858;10.128;2022-07-23T02:04:31;23.50;94.70
6379;DHT22;3222;48.858;10.128;2022-07-23T02:07:01;23.50;94.20
6379;DHT22;3222;48.858;10.128;2022-07-23T02:09:27;23.40;94.40
6379;DHT22;3222;48.858;10.128;2022-07-23T02:11:52;23.50;94.10
6379;DHT22;3222;48.858;10.128;2022-07-23T02:14:18;23.50;93.60
6379;DHT22;3222;48.858;10.128;2022-07-23T02:16:45;23.70;93.40
6379;DHT22;3222;48.858;10.128;2022-07-23T02:19:11;23.70;92.80
6379;DHT22;3222;48.858;10.128;2022-07-23T02:21:37;23.70;92.70
6379;DHT22;3222;48.858;10.128;2022-07-23T02:24:03;23.60;93.00
6379;DHT22;3222;48.858;10.128;2022-07-23T02:26:29;23.60;93.10
6379;DHT22;3222;48.858;10.128;2022-07-23T02:28:55;23.50;93.30
6379;DHT22;3222;48.858;10.128;2022-07-23T02:31:21;23.40;93.50
6379;DHT22;3222;48.858;10.128;2022-07-23T02:33:47;23.40;93.40
6379;DHT22;3222;48.858;10.128;2022-07-23T02:36:14;23.40;93.50
6379;DHT22;3222;48.858;10.128;2022-07-23T02:38:40;23.40;93.20
6379;DHT22;3222;48.858;10.128;2022-07-23T02:41:06;23.60;93.00
6379;DHT22;3222;48.858;10.128;2022-07-23T02:43:32;23.60;92.70
6379;DHT22;3222;48.858;10.128;2022-07-23T02:45:57;23.60;92.90
6379;DHT22;3222;48.858;10.128;2022-07-23T02:48:23;23.50;93.00
6379;DHT22;3222;48.858;10.128;2022-07-23T02:50:49;23.50;93.00
6379;DHT22;3222;48.858;10.128;2022-07-23T02:53:20;23.50;93.20
6379;DHT22;3222;48.858;10.128;2022-07-23T02:55:45;23.50;93.20
6379;DHT22;3222;48.858;10.128;2022-07-23T02:58:11;23.40;93.30
6379;DHT22;3222;48.858;10.128;2022-07-23T03:00:37;23.40;93.60
6379;DHT22;3222;48.858;10.128;2022-07-23T03:03:02;23.30;93.40
6379;DHT22;3222;48.858;10.128;2022-07-23T03:05:29;23.30;93.60
6379;DHT22;3222;48.858;10.128;2022-07-23T03:07:55;23.20;93.70
6379;DHT22;3222;48.858;10.128;2022-07-23T03:10:21;23.30;93.30
6379;DHT22;3222;48.858;10.128;2022-07-23T03:12:46;23.20;93.70
6379;DHT22;3222;48.858;10.128;2022-07-23T03:15:12;23.20;94.00
6379;DHT22;3222;48.858;10.128;2022-07-23T03:17:38;23.20;93.80
6379;DHT22;3222;48.858;10.128;2022-07-23T03:20:04;23.20;93.90
6379;DHT22;3222;48.858;10.128;2022-07-23T03:22:30;23.20;93.90
6379;DHT22;3222;48.858;10.128;2022-07-23T03:24:56;23.20;94.20
6379;DHT22;3222;48.858;10.128;2022-07-23T03:27:32;23.10;94.40
6379;DHT22;3222;48.858;10.128;2022-07-23T03:29:59;23.00;94.40
6379;DHT22;3222;48.858;10.128;2022-07-23T03:32:25;23.00;94.50
6379;DHT22;3222;48.858;10.128;2022-07-23T03:34:51;23.10;94.80
6379;DHT22;3222;48.858;10.128;2022-07-23T03:37:18;23.20;94.10
6379;DHT22;3222;48.858;10.128;2022-07-23T03:39:45;23.20;93.70
6379;DHT22;3222;48.858;10.128;2022-07-23T03:42:11;23.10;93.80
6379;DHT22;3222;48.858;10.128;2022-07-23T03:44:37;23.10;93.80
6379;DHT22;3222;48.858;10.128;2022-07-23T03:47:04;23.10;93.80
6379;DHT22;3222;48.858;10.128;2022-07-23T03:49:30;23.00;94.00
6379;DHT22;3222;48.858;10.128;2022-07-23T03:51:55;23.00;94.00
6379;DHT22;3222;48.858;10.128;2022-07-23T03:54:21;23.00;94.00
6379;DHT22;3222;48.858;10.128;2022-07-23T03:56:47;23.10;94.00
6379;DHT22;3222;48.858;10.128;2022-07-23T03:59:12;23.00;94.00
6379;DHT22;3222;48.858;10.128;2022-07-23T04:01:38;22.90;94.10
6379;DHT22;3222;48.858;10.128;2022-07-23T04:04:04;22.80;94.30
6379;DHT22;3222;48.858;10.128;2022-07-23T04:06:31;22.80;94.40
6379;DHT22;3222;48.858;10.128;2022-07-23T04:08:58;22.70;94.90
6379;DHT22;3222;48.858;10.128;2022-07-23T04:11:24;22.60;95.00
6379;DHT22;3222;48.858;10.128;2022-07-23T04:13:50;22.50;94.90
6379;DHT22;3222;48.858;10.128;2022-07-23T04:16:16;22.40;95.20
6379;DHT22;3222;48.858;10.128;2022-07-23T04:18:41;22.30;95.50
6379;DHT22;3222;48.858;10.128;2022-07-23T04:21:15;22.20;95.70
6379;DHT22;3222;48.858;10.128;2022-07-23T04:23:41;22.10;95.80
6379;DHT22;3222;48.858;10.128;2022-07-23T04:26:06;22.10;95.90
6379;DHT22;3222;48.858;10.128;2022-07-23T04:28:33;22.10;96.00
6379;DHT22;3222;48.858;10.128;2022-07-23T04:31:00;22.00;96.10
6379;DHT22;3222;48.858;10.128;2022-07-23T04:33:26;22.00;96.20
6379;DHT22;3222;48.858;10.128;2022-07-23T04:35:54;21.90;96.40
6379;DHT22;3222;48.858;10.128;2022-07-23T04:38:20;21.90;96.30
6379;DHT22;3222;48.858;10.128;2022-07-23T04:40:48;21.90;96.40
6379;DHT22;3222;48.858;10.128;2022-07-23T04:43:15;21.90;96.40
6379;DHT22;3222;48.858;10.128;2022-07-23T04:45:46;21.90;96.40
6379;DHT22;3222;48.858;10.128;2022-07-23T04:48:12;22.10;96.40
6379;DHT22;3222;48.858;10.128;2022-07-23T04:50:38;22.10;96.20
6379;DHT22;3222;48.858;10.128;2022-07-23T04:53:04;22.10;96.30
6379;DHT22;3222;48.858;10.128;2022-07-23T04:55:30;22.00;96.30
6379;DHT22;3222;48.858;10.128;2022-07-23T04:57:56;22.00;96.40
6379;DHT22;3222;48.858;10.128;2022-07-23T05:00:22;22.00;96.40
6379;DHT22;3222;48.858;10.128;2022-07-23T05:02:48;22.00;96.50
6379;DHT22;3222;48.858;10.128;2022-07-23T05:05:14;22.00;96.60
6379;DHT22;3222;48.858;10.128;2022-07-23T05:07:41;21.90;96.70
6379;DHT22;3222;48.858;10.128;2022-07-23T05:10:07;21.80;96.70
6379;DHT22;3222;48.858;10.128;2022-07-23T05:12:33;21.80;96.80
6379;DHT22;3222;48.858;10.128;2022-07-23T05:14:59;21.80;97.00
6379;DHT22;3222;48.858;10.128;2022-07-23T05:17:25;21.80;97.00
6379;DHT22;3222;48.858;10.128;2022-07-23T05:19:51;21.70;97.10
6379;DHT22;3222;48.858;10.128;2022-07-23T05:22:17;21.70;97.30
6379;DHT22;3222;48.858;10.128;2022-07-23T05:24:43;21.70;97.20
6379;DHT22;3222;48.858;10.128;2022-07-23T05:27:09;21.70;97.30
6379;DHT22;3222;48.858;10.128;2022-07-23T05:29:35;21.70;97.40
6379;DHT22;3222;48.858;10.128;2022-07-23T05:32:00;21.70;97.40
6379;DHT22;3222;48.858;10.128;2022-07-23T05:34:29;21.70;97.50
6379;DHT22;3222;48.858;10.128;2022-07-23T05:36:55;21.70;97.60
6379;DHT22;3222;48.858;10.128;2022-07-23T05:39:21;21.90;97.60
6379;DHT22;3222;48.858;10.128;2022-07-23T05:41:47;21.80;97.40
6379;DHT22;3222;48.858;10.128;2022-07-23T05:44:13;21.80;97.40
6379;DHT22;3222;48.858;10.128;2022-07-23T05:46:41;21.80;97.20
6379;DHT22;3222;48.858;10.128;2022-07-23T05:49:10;21.80;97.20
6379;DHT22;3222;48.858;10.128;2022-07-23T05:51:47;21.80;97.20
6379;DHT22;3222;48.858;10.128;2022-07-23T05:54:16;21.80;97.40
6379;DHT22;3222;48.858;10.128;2022-07-23T05:56:42;22.00;97.70
6379;DHT22;3222;48.858;10.128;2022-07-23T05:59:07;22.10;97.40
6379;DHT22;3222;48.858;10.128;2022-07-23T06:01:33;22.00;97.40
6379;DHT22;3222;48.858;10.128;2022-07-23T06:04:05;22.00;97.30
6379;DHT22;3222;48.858;10.128;2022-07-23T06:06:35;22.00;97.50
6379;DHT22;3222;48.858;10.128;2022-07-23T06:09:02;22.10;97.60
6379;DHT22;3222;48.858;10.128;2022-07-23T06:11:28;22.10;97.30
6379;DHT22;3222;48.858;10.128;2022-07-23T06:13:54;22.30;97.60
6379;DHT22;3222;48.858;10.128;2022-07-23T06:16:23;22.30;97.40
6379;DHT22;3222;48.858;10.128;2022-07-23T06:18:49;22.20;97.60
6379;DHT22;3222;48.858;10.128;2022-07-23T06:21:15;22.20;97.30
6379;DHT22;3222;48.858;10.128;2022-07-23T06:23:40;22.30;97.20
6379;DHT22;3222;48.858;10.128;2022-07-23T06:26:07;22.50;97.10
6379;DHT22;3222;48.858;10.128;2022-07-23T06:28:33;22.50;96.80
6379;DHT22;3222;48.858;10.128;2022-07-23T06:30:59;22.60;96.90
6379;DHT22;3222;48.858;10.128;2022-07-23T06:33:24;22.70;96.80
6379;DHT22;3222;48.858;10.128;2022-07-23T06:35:50;22.60;96.70
6379;DHT22;3222;48.858;10.128;2022-07-23T06:38:15;22.70;96.70
6379;DHT22;3222;48.858;10.128;2022-07-23T06:40:41;22.80;96.60
6379;DHT22;3222;48.858;10.128;2022-07-23T06:43:07;22.70;96.60
6379;DHT22;3222;48.858;10.128;2022-07-23T06:45:36;22.70;96.60
6379;DHT22;3222;48.858;10.128;2022-07-23T06:48:02;22.60;96.80
6379;DHT22;3222;48.858;10.128;2022-07-23T06:50:28;22.60;96.60
6379;DHT22;3222;48.858;10.128;2022-07-23T06:52:54;22.70;96.60
6379;DHT22;3222;48.858;10.128;2022-07-23T06:55:20;22.80;96.50
6379;DHT22;3222;48.858;10.128;2022-07-23T06:57:45;22.80;96.40
6379;DHT22;3222;48.858;10.128;2022-07-23T07:00:11;22.80;96.50
6379;DHT22;3222;48.858;10.128;2022-07-23T07:02:37;22.70;96.60
6379;DHT22;3222;48.858;10.128;2022-07-23T07:05:04;22.70;96.50
6379;DHT22;3222;48.858;10.128;2022-07-23T07:07:30;22.70;96.60
6379;DHT22;3222;48.858;10.128;2022-07-23T07:09:56;22.80;96.60
6379;DHT22;3222;48.858;10.128;2022-07-23T07:12:21;22.80;96.50
6379;DHT22;3222;48.858;10.128;2022-07-23T07:14:47;22.80;96.60
6379;DHT22;3222;48.858;10.128;2022-07-23T07:17:13;22.80;96.70
6379;DHT22;3222;48.858;10.128;2022-07-23T07:19:38;22.80;96.70
6379;DHT22;3222;48.858;10.128;2022-07-23T07:22:04;22.90;96.70
6379;DHT22;3222;48.858;10.128;2022-07-23T07:24:30;23.00;97.00
6379;DHT22;3222;48.858;10.128;2022-07-23T07:26:55;23.10;96.80
6379;DHT22;3222;48.858;10.128;2022-07-23T07:29:21;23.10;96.50
6379;DHT22;3222;48.858;10.128;2022-07-23T07:31:47;23.10;96.50
6379;DHT22;3222;48.858;10.128;2022-07-23T07:34:12;23.10;96.60
6379;DHT22;3222;48.858;10.128;2022-07-23T07:36:38;23.20;96.60
6379;DHT22;3222;48.858;10.128;2022-07-23T07:39:04;23.20;96.50
6379;DHT22;3222;48.858;10.128;2022-07-23T07:41:31;23.20;96.50
6379;DHT22;3222;48.858;10.128;2022-07-23T07:43:56;23.40;97.00
6379;DHT22;3222;48.858;10.128;2022-07-23T07:46:22;23.30;97.00
6379;DHT22;3222;48.858;10.128;2022-07-23T07:48:50;23.40;96.80
6379;DHT22;3222;48.858;10.128;2022-07-23T07:51:16;23.40;96.80
6379;DHT22;3222;48.858;10.128;2022-07-23T07:53:41;23.40;96.70
6379;DHT22;3222;48.858;10.128;2022-07-23T07:56:07;23.50;96.90
6379;DHT22;3222;48.858;10.128;2022-07-23T07:58:33;23.50;96.80
6379;DHT22;3222;48.858;10.128;2022-07-23T08:00:58;23.50;96.70
6379;DHT22;3222;48.858;10.128;2022-07-23T08:03:24;23.50;96.80
6379;DHT22;3222;48.858;10.128;2022-07-23T08:05:50;23.60;96.90
6379;DHT22;3222;48.858;10.128;2022-07-23T08:08:15;23.50;96.80
6379;DHT22;3222;48.858;10.128;2022-07-23T08:10:41;23.50;96.90
6379;DHT22;3222;48.858;10.128;2022-07-23T08:13:07;23.50;96.90
6379;DHT22;3222;48.858;10.128;2022-07-23T08:15:33;23.40;97.10
6379;DHT22;3222;48.858;10.128;2022-07-23T08:17:59;23.50;97.10
6379;DHT22;3222;48.858;10.128;2022-07-23T08:20:26;23.60;96.80
6379;DHT22;3222;48.858;10.128;2022-07-23T08:23:00;23.60;96.80
6379;DHT22;3222;48.858;10.128;2022-07-23T08:25:34;23.60;96.90
6379;DHT22;3222;48.858;10.128;2022-07-23T08:28:02;23.60;97.00
6379;DHT22;3222;48.858;10.128;2022-07-23T08:30:29;23.60;97.30
6379;DHT22;3222;48.858;10.128;2022-07-23T08:35:30;23.60;96.90
6379;DHT22;3222;48.858;10.128;2022-07-23T08:37:57;23.70;97.10
6379;DHT22;3222;48.858;10.128;2022-07-23T08:40:26;23.80;97.20
6379;DHT22;3222;48.858;10.128;2022-07-23T08:42:52;23.70;96.80
6379;DHT22;3222;48.858;10.128;2022-07-23T08:45:19;23.60;97.10
6379;DHT22;3222;48.858;10.128;2022-07-23T08:47:51;23.50;96.80
6379;DHT22;3222;48.858;10.128;2022-07-23T08:50:18;23.50;96.70
6379;DHT22;3222;48.858;10.128;2022-07-23T08:52:44;23.50;96.80
6379;DHT22;3222;48.858;10.128;2022-07-23T08:55:11;23.50;96.90
6379;DHT22;3222;48.858;10.128;2022-07-23T08:57:36;23.60;96.80
6379;DHT22;3222;48.858;10.128;2022-07-23T09:00:04;23.50;96.70
6379;DHT22;3222;48.858;10.128;2022-07-23T09:02:30;23.70;96.70
6379;DHT22;3222;48.858;10.128;2022-07-23T09:04:56;23.70;96.80
6379;DHT22;3222;48.858;10.128;2022-07-23T09:07:22;23.80;96.70
6379;DHT22;3222;48.858;10.128;2022-07-23T09:10:08;23.80;96.80
6379;DHT22;3222;48.858;10.128;2022-07-23T09:12:34;23.80;96.90
6379;DHT22;3222;48.858;10.128;2022-07-23T09:15:09;23.80;96.90
6379;DHT22;3222;48.858;10.128;2022-07-23T09:17:41;23.80;96.80
6379;DHT22;3222;48.858;10.128;2022-07-23T09:20:09;23.90;96.80
6379;DHT22;3222;48.858;10.128;2022-07-23T09:22:35;23.90;96.80
6379;DHT22;3222;48.858;10.128;2022-07-23T09:25:14;23.90;96.90
6379;DHT22;3222;48.858;10.128;2022-07-23T09:27:55;23.90;96.80
6379;DHT22;3222;48.858;10.128;2022-07-23T09:30:26;24.00;97.10
6379;DHT22;3222;48.858;10.128;2022-07-23T09:33:12;24.00;97.10
6379;DHT22;3222;48.858;10.128;2022-07-23T09:38:10;24.10;96.80
6379;DHT22;3222;48.858;10.128;2022-07-23T09:40:35;24.10;96.80
6379;DHT22;3222;48.858;10.128;2022-07-23T09:43:01;24.00;96.90
6379;DHT22;3222;48.858;10.128;2022-07-23T09:45:27;24.00;96.90
6379;DHT22;3222;48.858;10.128;2022-07-23T09:50:39;24.10;96.80
6379;DHT22;3222;48.858;10.128;2022-07-23T09:53:04;24.20;97.10
6379;DHT22;3222;48.858;10.128;2022-07-23T09:55:35;24.20;96.90
6379;DHT22;3222;48.858;10.128;2022-07-23T09:58:07;24.20;96.80
6379;DHT22;3222;48.858;10.128;2022-07-23T10:00:43;24.30;96.80
6379;DHT22;3222;48.858;10.128;2022-07-23T10:03:11;24.40;96.70
6379;DHT22;3222;48.858;10.128;2022-07-23T10:05:41;24.50;96.60
6379;DHT22;3222;48.858;10.128;2022-07-23T10:08:22;24.60;96.20
6379;DHT22;3222;48.858;10.128;2022-07-23T10:10:50;24.60;96.40
6379;DHT22;3222;48.858;10.128;2022-07-23T10:13:34;24.60;96.20
6379;DHT22;3222;48.858;10.128;2022-07-23T10:16:19;24.60;96.30
6379;DHT22;3222;48.858;10.128;2022-07-23T10:18:46;24.80;96.30
6379;DHT22;3222;48.858;10.128;2022-07-23T10:21:18;24.80;96.10
6379;DHT22;3222;48.858;10.128;2022-07-23T10:26:37;24.80;96.00
6379;DHT22;3222;48.858;10.128;2022-07-23T10:34:28;24.60;96.10
6379;DHT22;3222;48.858;10.128;2022-07-23T10:36:58;24.70;96.10
6379;DHT22;3222;48.858;10.128;2022-07-23T10:39:29;24.70;96.00
6379;DHT22;3222;48.858;10.128;2022-07-23T10:42:16;24.70;96.00
6379;DHT22;3222;48.858;10.128;2022-07-23T10:47:09;24.60;96.10
6379;DHT22;3222;48.858;10.128;2022-07-23T10:49:35;24.50;96.10
6379;DHT22;3222;48.858;10.128;2022-07-23T10:52:20;24.70;96.00
6379;DHT22;3222;48.858;10.128;2022-07-23T10:54:48;24.80;96.00
6379;DHT22;3222;48.858;10.128;2022-07-23T10:57:17;24.70;96.00
6379;DHT22;3222;48.858;10.128;2022-07-23T11:02:38;24.90;95.60
6379;DHT22;3222;48.858;10.128;2022-07-23T11:05:07;25.00;95.60
6379;DHT22;3222;48.858;10.128;2022-07-23T11:07:33;25.10;95.60
6379;DHT22;3222;48.858;10.128;2022-07-23T11:09:59;25.10;95.50
6379;DHT22;3222;48.858;10.128;2022-07-23T11:15:06;25.10;95.50
6379;DHT22;3222;48.858;10.128;2022-07-23T11:17:38;25.00;95.40
6379;DHT22;3222;48.858;10.128;2022-07-23T11:25:28;25.00;95.40
6379;DHT22;3222;48.858;10.128;2022-07-23T11:27:54;24.90;95.80
6379;DHT22;3222;48.858;10.128;2022-07-23T11:32:53;24.90;95.50
6379;DHT22;3222;48.858;10.128;2022-07-23T11:35:28;24.90;95.50
6379;DHT22;3222;48.858;10.128;2022-07-23T11:40:45;25.00;95.50
6379;DHT22;3222;48.858;10.128;2022-07-23T11:43:11;25.10;95.50
6379;DHT22;3222;48.858;10.128;2022-07-23T11:45:40;25.10;95.30
6379;DHT22;3222;48.858;10.128;2022-07-23T11:48:09;25.00;95.40
6379;DHT22;3222;48.858;10.128;2022-07-23T11:50:41;25.00;95.50
6379;DHT22;3222;48.858;10.128;2022-07-23T11:53:07;24.90;95.60
6379;DHT22;3222;48.858;10.128;2022-07-23T11:55:32;24.80;95.60
6379;DHT22;3222;48.858;10.128;2022-07-23T11:57:58;24.90;95.50
6379;DHT22;3222;48.858;10.128;2022-07-23T12:00:27;25.00;95.40
6379;DHT22;3222;48.858;10.128;2022-07-23T12:02:56;25.00;95.40
6379;DHT22;3222;48.858;10.128;2022-07-23T12:05:36;25.10;95.40
6379;DHT22;3222;48.858;10.128;2022-07-23T12:08:04;25.00;95.50
6379;DHT22;3222;48.858;10.128;2022-07-23T12:10:38;25.00;95.60
6379;DHT22;3222;48.858;10.128;2022-07-23T12:13:14;25.00;95.50
6379;DHT22;3222;48.858;10.128;2022-07-23T12:15:46;25.00;95.80
6379;DHT22;3222;48.858;10.128;2022-07-23T12:18:21;25.20;95.80
6379;DHT22;3222;48.858;10.128;2022-07-23T12:20:50;25.10;95.50
6379;DHT22;3222;48.858;10.128;2022-07-23T12:23:18;25.10;95.60
6379;DHT22;3222;48.858;10.128;2022-07-23T12:25:46;25.20;95.50
6379;DHT22;3222;48.858;10.128;2022-07-23T12:28:18;25.20;95.30
6379;DHT22;3222;48.858;10.128;2022-07-23T12:30:48;25.30;95.30
6379;DHT22;3222;48.858;10.128;2022-07-23T12:33:39;25.30;95.30
6379;DHT22;3222;48.858;10.128;2022-07-23T12:36:07;25.20;95.40
6379;DHT22;3222;48.858;10.128;2022-07-23T12:38:47;25.10;95.30
6379;DHT22;3222;48.858;10.128;2022-07-23T12:41:14;25.20;95.30
6379;DHT22;3222;48.858;10.128;2022-07-23T12:43:42;25.30;95.20
6379;DHT22;3222;48.858;10.128;2022-07-23T12:46:20;25.30;95.50
6379;DHT22;3222;48.858;10.128;2022-07-23T12:51:22;25.30;95.10
6379;DHT22;3222;48.858;10.128;2022-07-23T12:53:54;25.20;95.20
6379;DHT22;3222;48.858;10.128;2022-07-23T12:56:34;25.30;95.20
6379;DHT22;3222;48.858;10.128;2022-07-23T13:01:55;25.30;95.00
6379;DHT22;3222;48.858;10.128;2022-07-23T13:04:24;25.30;95.00
6379;DHT22;3222;48.858;10.128;2022-07-23T13:06:53;25.30;95.00
6379;DHT22;3222;48.858;10.128;2022-07-23T13:11:47;25.30;94.90
6379;DHT22;3222;48.858;10.128;2022-07-23T13:14:14;25.40;94.80
6379;DHT22;3222;48.858;10.128;2022-07-23T13:16:41;25.40;94.80
6379;DHT22;3222;48.858;10.128;2022-07-23T13:19:07;25.40;94.60
6379;DHT22;3222;48.858;10.128;2022-07-23T13:21:33;25.50;94.70
6379;DHT22;3222;48.858;10.128;2022-07-23T13:23:59;25.60;94.40
6379;DHT22;3222;48.858;10.128;2022-07-23T13:26:26;25.50;94.30
6379;DHT22;3222;48.858;10.128;2022-07-23T13:28:52;25.40;94.50
6379;DHT22;3222;48.858;10.128;2022-07-23T13:31:18;25.50;94.50
6379;DHT22;3222;48.858;10.128;2022-07-23T13:33:43;25.50;94.30
6379;DHT22;3222;48.858;10.128;2022-07-23T13:36:09;25.60;94.20
6379;DHT22;3222;48.858;10.128;2022-07-23T13:38:35;25.60;94.20
6379;DHT22;3222;48.858;10.128;2022-07-23T13:41:01;25.60;94.30
6379;DHT22;3222;48.858;10.128;2022-07-23T13:43:28;25.60;94.30
6379;DHT22;3222;48.858;10.128;2022-07-23T13:45:54;25.70;94.40
6379;DHT22;3222;48.858;10.128;2022-07-23T13:48:20;25.80;94.40
6379;DHT22;3222;48.858;10.128;2022-07-23T13:50:48;25.90;93.90
6379;DHT22;3222;48.858;10.128;2022-07-23T13:53:20;26.00;93.90
6379;DHT22;3222;48.858;10.128;2022-07-23T13:55:47;26.00;94.00
6379;DHT22;3222;48.858;10.128;2022-07-23T13:58:14;26.20;93.50
6379;DHT22;3222;48.858;10.128;2022-07-23T14:00:43;26.20;93.80
6379;DHT22;3222;48.858;10.128;2022-07-23T14:03:09;26.10;93.50
6379;DHT22;3222;48.858;10.128;2022-07-23T14:05:35;26.20;93.40
6379;DHT22;3222;48.858;10.128;2022-07-23T14:08:01;26.20;93.50
6379;DHT22;3222;48.858;10.128;2022-07-23T14:10:26;26.30;93.40
6379;DHT22;3222;48.858;10.128;2022-07-23T14:12:53;26.40;93.20
6379;DHT22;3222;48.858;10.128;2022-07-23T14:15:21;26.50;92.40
6379;DHT22;3222;48.858;10.128;2022-07-23T14:17:47;26.60;92.10
6379;DHT22;3222;48.858;10.128;2022-07-23T14:20:14;26.60;92.40
6379;DHT22;3222;48.858;10.128;2022-07-23T14:22:40;26.50;92.40
6379;DHT22;3222;48.858;10.128;2022-07-23T14:25:08;26.40;92.30
6379;DHT22;3222;48.858;10.128;2022-07-23T14:27:34;26.40;92.70
6379;DHT22;3222;48.858;10.128;2022-07-23T14:30:00;26.50;92.40
6379;DHT22;3222;48.858;10.128;2022-07-23T14:32:26;26.50;92.80
6379;DHT22;3222;48.858;10.128;2022-07-23T14:34:52;26.60;92.80
6379;DHT22;3222;48.858;10.128;2022-07-23T14:37:18;26.60;92.40
6379;DHT22;3222;48.858;10.128;2022-07-23T14:39:44;26.60;92.40
6379;DHT22;3222;48.858;10.128;2022-07-23T14:42:11;26.70;92.20
6379;DHT22;3222;48.858;10.128;2022-07-23T14:44:37;26.70;91.90
6379;DHT22;3222;48.858;10.128;2022-07-23T14:47:04;26.90;91.90
6379;DHT22;3222;48.858;10.128;2022-07-23T14:49:30;27.00;91.40
6379;DHT22;3222;48.858;10.128;2022-07-23T14:51:57;26.90;91.40
6379;DHT22;3222;48.858;10.128;2022-07-23T14:54:23;27.00;91.30
6379;DHT22;3222;48.858;10.128;2022-07-23T14:56:51;27.00;91.30
6379;DHT22;3222;48.858;10.128;2022-07-23T14:59:17;27.10;91.30
6379;DHT22;3222;48.858;10.128;2022-07-23T15:01:43;27.10;91.10
6379;DHT22;3222;48.858;10.128;2022-07-23T15:04:08;27.20;91.00
6379;DHT22;3222;48.858;10.128;2022-07-23T15:06:34;27.40;90.50
6379;DHT22;3222;48.858;10.128;2022-07-23T15:09:00;27.40;90.30
6379;DHT22;3222;48.858;10.128;2022-07-23T15:11:27;27.40;90.50
6379;DHT22;3222;48.858;10.128;2022-07-23T15:13:55;27.50;90.40
6379;DHT22;3222;48.858;10.128;2022-07-23T15:16:20;27.50;90.40
6379;DHT22;3222;48.858;10.128;2022-07-23T15:18:46;27.60;90.30
6379;DHT22;3222;48.858;10.128;2022-07-23T15:21:12;27.50;90.50
6379;DHT22;3222;48.858;10.128;2022-07-23T15:23:38;27.40;90.40
6379;DHT22;3222;48.858;10.128;2022-07-23T15:26:05;27.30;90.70
6379;DHT22;3222;48.858;10.128;2022-07-23T15:28:32;27.30;90.80
6379;DHT22;3222;48.858;10.128;2022-07-23T15:30:57;27.20;91.00
6379;DHT22;3222;48.858;10.128;2022-07-23T15:33:23;27.30;91.20
6379;DHT22;3222;48.858;10.128;2022-07-23T15:35:49;27.40;91.00
6379;DHT22;3222;48.858;10.128;2022-07-23T15:38:15;27.40;91.20
6379;DHT22;3222;48.858;10.128;2022-07-23T15:40:41;27.40;91.10
6379;DHT22;3222;48.858;10.128;2022-07-23T15:43:06;27.50;90.80
6379;DHT22;3222;48.858;10.128;2022-07-23T15:45:32;27.50;91.00
6379;DHT22;3222;48.858;10.128;2022-07-23T15:47:58;27.50;90.90
6379;DHT22;3222;48.858;10.128;2022-07-23T15:50:24;27.40;91.00
6379;DHT22;3222;48.858;10.128;2022-07-23T15:52:50;27.40;91.00
6379;DHT22;3222;48.858;10.128;2022-07-23T15:55:16;27.30;91.00
6379;DHT22;3222;48.858;10.128;2022-07-23T15:57:41;27.20;91.70
6379;DHT22;3222;48.858;10.128;2022-07-23T16:00:07;27.20;91.00
6379;DHT22;3222;48.858;10.128;2022-07-23T16:02:34;27.10;91.10
6379;DHT22;3222;48.858;10.128;2022-07-23T16:05:00;27.10;91.20
6379;DHT22;3222;48.858;10.128;2022-07-23T16:07:26;27.20;90.70
6379;DHT22;3222;48.858;10.128;2022-07-23T16:09:52;27.10;90.70
6379;DHT22;3222;48.858;10.128;2022-07-23T16:12:17;27.20;90.70
6379;DHT22;3222;48.858;10.128;2022-07-23T16:14:43;27.10;90.50
6379;DHT22;3222;48.858;10.128;2022-07-23T16:17:09;27.20;90.40
6379;DHT22;3222;48.858;10.128;2022-07-23T16:19:35;27.20;90.40
6379;DHT22;3222;48.858;10.128;2022-07-23T16:22:00;27.10;90.30
6379;DHT22;3222;48.858;10.128;2022-07-23T16:24:26;27.10;90.40
6379;DHT22;3222;48.858;10.128;2022-07-23T16:26:52;27.10;90.00
6379;DHT22;3222;48.858;10.128;2022-07-23T16:29:17;26.90;90.70